createdAt,value
2019-02-15T00:01:45.425Z,29.30
2019-02-15T00:04:15.888Z,25.88
2019-02-15T00:06:46.638Z,26.85
2019-02-15T00:09:17.088Z,28.35
2019-02-15T00:11:47.840Z,27.58
2019-02-15T00:14:18.394Z,30.62
2019-02-15T00:16:48.841Z,25.50
2019-02-15T00:19:39.722Z,29.77
2019-02-15T00:22:10.786Z,28.57
2019-02-15T00:24:41.260Z,32.50
2019-02-15T00:27:11.720Z,27.17
2019-02-15T00:29:42.467Z,32.17
2019-02-15T00:32:13.416Z,31.02
2019-02-15T00:34:43.894Z,31.52
2019-02-15T00:37:14.740Z,31.73
2019-02-15T00:39:45.208Z,28.83
2019-02-15T00:42:15.685Z,33.60
2019-02-15T00:44:46.168Z,28.50
2019-02-15T00:47:35.892Z,26.40
2019-02-15T00:50:14.838Z,31.03
2019-02-15T00:53:22.825Z,28.73
2019-02-15T00:56:04.020Z,31.33
2019-02-15T00:58:52.250Z,34.50
2019-02-15T01:01:42.357Z,29.67
2019-02-15T01:04:18.941Z,32.17
2019-02-15T01:07:14.329Z,30.17
2019-02-15T01:10:06.854Z,33.37
2019-02-15T01:13:00.795Z,30.90
2019-02-15T01:15:31.256Z,30.80
2019-02-15T01:18:01.821Z,29.10
2019-02-15T01:20:32.341Z,35.20
2019-02-15T01:23:03.111Z,35.25
2019-02-15T01:25:40.814Z,36.42
2019-02-15T01:28:45.713Z,32.93
2019-02-15T01:31:30.362Z,32.50
2019-02-15T01:34:32.262Z,29.60
2019-02-15T01:37:12.184Z,29.95
2019-02-15T01:39:59.756Z,28.60
2019-02-15T01:42:49.248Z,29.40
2019-02-15T01:45:32.957Z,32.00
2019-02-15T01:48:03.788Z,31.27
2019-02-15T01:50:34.270Z,31.90
2019-02-15T01:53:05.095Z,37.40
2019-02-15T01:55:35.845Z,35.53
2019-02-15T01:58:06.280Z,31.23
2019-02-15T02:00:36.917Z,31.03
2019-02-15T02:03:07.393Z,31.90
2019-02-15T02:05:37.920Z,30.03
2019-02-15T02:08:10.060Z,30.80
2019-02-15T02:10:40.609Z,30.10
2019-02-15T02:13:11.080Z,32.70
2019-02-15T02:15:41.526Z,32.73
2019-02-15T02:18:11.991Z,33.88
2019-02-15T02:20:42.429Z,33.23
2019-02-15T02:23:12.893Z,32.15
2019-02-15T02:25:43.341Z,29.63
2019-02-15T02:28:13.833Z,31.55
2019-02-15T02:30:44.296Z,28.00
2019-02-15T02:33:15.139Z,32.80
2019-02-15T02:35:45.587Z,31.33
2019-02-15T02:38:16.038Z,28.62
2019-02-15T02:40:46.505Z,31.70
2019-02-15T02:43:16.951Z,33.07
2019-02-15T02:45:47.396Z,29.63
2019-02-15T02:48:17.865Z,29.72
2019-02-15T02:50:48.332Z,36.37
2019-02-15T02:53:18.977Z,29.90
2019-02-15T02:55:49.429Z,30.67
2019-02-15T02:58:20.176Z,29.85
2019-02-15T03:00:50.638Z,28.23
2019-02-15T03:03:21.341Z,29.10
2019-02-15T03:05:52.116Z,32.30
2019-02-15T03:08:22.581Z,32.42
2019-02-15T03:10:53.016Z,29.98
2019-02-15T03:13:23.458Z,32.38
2019-02-15T03:15:54.237Z,32.83
2019-02-15T03:18:25.524Z,34.05
2019-02-15T03:20:55.972Z,32.47
2019-02-15T03:23:26.693Z,34.40
2019-02-15T03:25:57.146Z,31.02
2019-02-15T03:28:27.919Z,30.48
2019-02-15T03:30:58.402Z,33.08
2019-02-15T03:33:28.851Z,35.47
2019-02-15T03:36:02.291Z,32.25
2019-02-15T03:38:46.718Z,31.95
2019-02-15T03:41:27.598Z,35.55
2019-02-15T03:43:58.056Z,29.97
2019-02-15T03:46:28.497Z,32.00
2019-02-15T03:48:58.947Z,31.33
2019-02-15T03:51:29.371Z,36.17
2019-02-15T03:54:00.172Z,30.20
2019-02-15T03:56:30.687Z,27.17
2019-02-15T03:59:01.118Z,31.40
2019-02-15T04:01:31.562Z,28.65
2019-02-15T04:04:02.001Z,29.18
2019-02-15T04:06:32.493Z,28.55
2019-02-15T04:09:04.365Z,36.55
2019-02-15T04:11:34.820Z,34.20
2019-02-15T04:14:05.606Z,32.67
2019-02-15T04:16:36.110Z,32.28
2019-02-15T04:19:06.959Z,31.03
2019-02-15T04:21:37.368Z,30.67
2019-02-15T04:24:07.889Z,33.23
2019-02-15T04:26:38.333Z,33.85
2019-02-15T04:29:08.781Z,36.67
2019-02-15T04:31:39.231Z,37.55
2019-02-15T04:34:10.330Z,40.43
2019-02-15T04:36:40.752Z,33.58
2019-02-15T04:39:11.198Z,34.13
2019-02-15T04:41:41.628Z,33.80
2019-02-15T04:44:12.098Z,34.20
2019-02-15T04:46:42.561Z,31.00
2019-02-15T04:49:13.011Z,33.50
2019-02-15T04:51:43.461Z,34.08
2019-02-15T04:54:13.906Z,33.18
2019-02-15T04:56:44.711Z,36.80
2019-02-15T04:59:15.182Z,39.30
2019-02-15T05:01:45.632Z,31.07
2019-02-15T05:04:16.509Z,36.28
2019-02-15T05:06:47.008Z,35.27
2019-02-15T05:09:17.469Z,37.57
2019-02-15T05:11:47.914Z,36.30
2019-02-15T05:14:18.440Z,30.43
2019-02-15T05:16:48.889Z,35.97
2019-02-15T05:19:19.424Z,29.93
2019-02-15T05:21:50.155Z,33.33
2019-02-15T05:24:20.629Z,39.90
2019-02-15T05:26:51.627Z,38.37
2019-02-15T05:29:22.415Z,34.60
2019-02-15T05:31:52.880Z,30.57
2019-02-15T05:34:23.346Z,34.15
2019-02-15T05:36:53.809Z,34.87
2019-02-15T05:39:24.511Z,31.05
2019-02-15T05:41:54.966Z,33.87
2019-02-15T05:44:25.420Z,36.20
2019-02-15T05:46:55.926Z,33.03
2019-02-15T05:49:26.725Z,31.55
2019-02-15T05:51:57.185Z,39.90
2019-02-15T05:54:27.727Z,31.93
2019-02-15T05:56:58.486Z,31.97
2019-02-15T05:59:28.960Z,30.63
2019-02-15T06:01:59.409Z,35.60
2019-02-15T06:04:29.872Z,30.32
2019-02-15T06:07:00.594Z,33.37
2019-02-15T06:09:31.175Z,32.73
2019-02-15T06:12:01.606Z,37.63
2019-02-15T06:14:32.110Z,35.17
2019-02-15T06:17:02.590Z,37.67
2019-02-15T06:19:33.111Z,36.50
2019-02-15T06:22:03.555Z,33.43
2019-02-15T06:24:34.047Z,33.15
2019-02-15T06:27:04.507Z,37.97
2019-02-15T06:29:34.981Z,31.77
2019-02-15T06:32:05.430Z,29.90
2019-02-15T06:34:36.193Z,37.28
2019-02-15T06:37:06.660Z,32.80
2019-02-15T06:39:37.160Z,33.48
2019-02-15T06:42:07.620Z,28.90
2019-02-15T06:44:38.357Z,34.25
2019-02-15T06:47:08.800Z,33.53
2019-02-15T06:49:39.633Z,30.92
2019-02-15T06:52:10.091Z,37.57
2019-02-15T06:54:40.940Z,31.63
2019-02-15T06:57:11.388Z,35.55
2019-02-15T07:00:01.723Z,39.27
2019-02-15T07:02:36.981Z,34.45
2019-02-15T07:05:21.169Z,36.90
2019-02-15T07:07:51.940Z,42.88
2019-02-15T07:10:22.410Z,48.40
2019-02-15T07:12:52.856Z,37.28
2019-02-15T07:15:23.405Z,36.57
2019-02-15T07:17:53.857Z,38.98
2019-02-15T07:20:24.329Z,31.70
2019-02-15T07:22:54.891Z,35.92
2019-02-15T07:25:26.260Z,34.07
2019-02-15T07:27:57.077Z,42.00
2019-02-15T07:30:27.561Z,41.80
2019-02-15T07:32:58.589Z,37.10
2019-02-15T07:35:29.049Z,40.20
2019-02-15T07:37:59.494Z,154.43
2019-02-15T07:40:29.936Z,254.53
2019-02-15T07:43:00.381Z,120.15
2019-02-15T07:45:31.196Z,72.12
2019-02-15T07:48:02.962Z,68.57
2019-02-15T07:50:33.799Z,55.05
2019-02-15T07:53:04.272Z,40.28
2019-02-15T07:55:34.721Z,41.97
2019-02-15T07:58:05.167Z,42.13
2019-02-15T08:00:35.631Z,42.20
2019-02-15T08:03:06.088Z,41.60
2019-02-15T08:05:36.542Z,40.75
2019-02-15T08:08:07.027Z,40.20
2019-02-15T08:10:39.424Z,38.13
2019-02-15T08:13:10.137Z,37.83
2019-02-15T08:15:40.909Z,35.85
2019-02-15T08:18:11.393Z,42.70
2019-02-15T08:20:41.861Z,41.95
2019-02-15T08:23:13.332Z,38.73
2019-02-15T08:25:44.138Z,46.28
2019-02-15T08:28:14.628Z,45.70
2019-02-15T08:30:45.103Z,45.90
2019-02-15T08:33:15.901Z,44.57
2019-02-15T08:35:46.367Z,43.23
2019-02-15T08:38:16.825Z,43.03
2019-02-15T08:40:47.274Z,46.83
2019-02-15T08:43:17.755Z,45.77
2019-02-15T08:45:48.193Z,48.00
2019-02-15T08:48:19.072Z,44.27
2019-02-15T08:50:49.568Z,44.47
2019-02-15T08:53:20.038Z,44.00
2019-02-15T08:55:50.830Z,44.90
2019-02-15T08:58:21.335Z,45.85
2019-02-15T09:00:51.805Z,42.67
2019-02-15T09:03:22.518Z,42.75
2019-02-15T09:05:52.968Z,47.30
2019-02-15T09:08:23.426Z,42.13
2019-02-15T09:10:54.182Z,46.77
2019-02-15T09:13:24.669Z,41.85
2019-02-15T09:15:55.399Z,43.75
2019-02-15T09:18:25.877Z,47.57
2019-02-15T09:23:31.913Z,39.58
2019-02-15T09:26:02.731Z,42.20
2019-02-15T09:28:37.686Z,39.17
2019-02-15T09:31:08.160Z,38.60
2019-02-15T09:33:38.627Z,40.88
2019-02-15T09:36:09.089Z,41.28
2019-02-15T09:38:39.547Z,39.92
2019-02-15T09:41:10.414Z,39.88
2019-02-15T09:43:40.929Z,38.63
2019-02-15T09:46:19.504Z,36.90
2019-02-15T09:48:43.878Z,34.03
2019-02-15T09:51:14.622Z,36.28
2019-02-15T09:53:45.370Z,30.77
2019-02-15T09:56:15.832Z,29.52
2019-02-15T09:58:46.304Z,28.20
2019-02-15T10:01:16.767Z,35.43
2019-02-15T10:03:47.249Z,30.70
2019-02-15T10:06:17.717Z,30.63
2019-02-15T10:08:48.820Z,30.70
2019-02-15T10:11:19.279Z,29.90
2019-02-15T10:13:49.808Z,35.90
2019-02-15T10:16:28.249Z,33.23
2019-02-15T10:18:52.413Z,30.43
2019-02-15T10:21:22.907Z,30.80
2019-02-15T10:23:53.937Z,31.07
2019-02-15T10:26:24.410Z,31.70
2019-02-15T10:28:55.197Z,30.00
2019-02-15T10:31:26.316Z,28.80
2019-02-15T10:33:56.757Z,27.30
2019-02-15T10:36:27.475Z,27.60
2019-02-15T10:38:57.922Z,28.57
2019-02-15T10:41:28.706Z,28.57
2019-02-15T10:43:59.211Z,29.35
2019-02-15T10:46:37.604Z,26.10
2019-02-15T10:49:02.313Z,31.55
2019-02-15T10:51:32.783Z,27.10
2019-02-15T10:54:03.244Z,28.30
2019-02-15T10:56:33.723Z,29.33
2019-02-15T10:59:04.197Z,28.12
2019-02-15T11:01:34.642Z,29.13
2019-02-15T11:04:05.117Z,29.35
2019-02-15T11:06:35.950Z,27.10
2019-02-15T11:09:11.282Z,27.98
2019-02-15T11:11:41.760Z,27.87
2019-02-15T11:14:12.297Z,28.70
2019-02-15T11:16:47.216Z,28.53
2019-02-15T11:19:15.389Z,29.57
2019-02-15T11:21:45.845Z,28.23
2019-02-15T11:24:16.680Z,29.12
2019-02-15T11:26:47.138Z,29.12
2019-02-15T11:29:17.626Z,29.82
2019-02-15T11:31:48.087Z,28.60
2019-02-15T11:34:18.563Z,30.17
2019-02-15T11:36:49.389Z,30.10
2019-02-15T11:39:20.299Z,28.92
2019-02-15T11:41:50.755Z,29.73
2019-02-15T11:44:21.301Z,29.87
2019-02-15T11:46:56.736Z,26.33
2019-02-15T11:49:24.322Z,26.43
2019-02-15T11:51:54.785Z,27.17
2019-02-15T11:54:25.332Z,25.70
2019-02-15T11:56:55.816Z,26.87
2019-02-15T11:59:26.296Z,26.37
2019-02-15T12:02:05.485Z,26.70
2019-02-15T12:04:29.013Z,25.90
2019-02-15T12:06:59.526Z,26.67
2019-02-15T12:09:29.992Z,26.53
2019-02-15T12:12:00.501Z,27.40
2019-02-15T12:14:31.037Z,27.03
2019-02-15T12:17:05.581Z,26.00
2019-02-15T12:19:34.670Z,27.77
2019-02-15T12:22:05.154Z,27.13
2019-02-15T12:24:35.621Z,27.93
2019-02-15T12:27:06.416Z,28.40
2019-02-15T12:29:36.989Z,27.75
2019-02-15T12:32:07.493Z,27.50
2019-02-15T12:34:37.987Z,27.87
2019-02-15T12:37:08.501Z,28.02
2019-02-15T12:39:38.966Z,28.13
2019-02-15T12:42:11.041Z,26.97
2019-02-15T12:44:41.543Z,26.77
2019-02-15T12:47:15.092Z,27.52
2019-02-15T12:49:44.905Z,25.60
2019-02-15T12:52:15.425Z,26.37
2019-02-15T12:54:46.355Z,26.33
2019-02-15T12:57:16.848Z,26.00
2019-02-15T12:59:47.338Z,23.43
2019-02-15T13:02:17.905Z,23.17
2019-02-15T13:04:48.382Z,21.83
2019-02-15T13:07:19.016Z,21.68
2019-02-15T13:09:51.957Z,23.60
2019-02-15T13:12:22.286Z,22.17
2019-02-15T13:14:52.818Z,23.02
2019-02-15T13:17:25.012Z,23.57
2019-02-15T13:19:55.723Z,22.90
2019-02-15T13:22:26.192Z,23.90
2019-02-15T13:24:56.950Z,25.97
2019-02-15T13:27:27.739Z,26.90
2019-02-15T13:29:58.561Z,27.80
2019-02-15T13:32:29.063Z,27.70
2019-02-15T13:34:59.997Z,27.37
2019-02-15T13:37:31.439Z,28.27
2019-02-15T13:40:02.293Z,28.98
2019-02-15T13:42:32.954Z,25.48
2019-02-15T13:47:51.865Z,25.12
2019-02-15T13:50:22.415Z,25.20
2019-02-15T13:52:52.943Z,27.17
2019-02-15T13:55:23.537Z,26.00
2019-02-15T13:57:54.108Z,25.92
2019-02-15T14:00:24.663Z,25.93
2019-02-15T14:02:55.133Z,28.38
2019-02-15T14:05:25.707Z,29.23
2019-02-15T14:07:57.278Z,28.75
2019-02-15T14:10:28.104Z,29.43
2019-02-15T14:12:58.653Z,30.53
2019-02-15T14:15:29.191Z,29.32
2019-02-15T14:17:59.690Z,28.50
2019-02-15T14:20:30.656Z,29.07
2019-02-15T14:23:01.157Z,28.15
2019-02-15T14:25:31.658Z,28.60
2019-02-15T14:28:02.161Z,29.15
2019-02-15T14:30:32.655Z,28.62
2019-02-15T14:33:03.159Z,28.10
2019-02-15T14:35:34.089Z,28.27
2019-02-15T14:38:04.837Z,27.70
2019-02-15T14:40:35.873Z,27.85
2019-02-15T14:43:06.370Z,27.73
2019-02-15T14:45:36.850Z,25.85
2019-02-15T14:48:07.641Z,24.93
2019-02-15T14:50:38.109Z,24.73
2019-02-15T14:53:08.610Z,26.02
2019-02-15T14:55:39.069Z,25.03
2019-02-15T14:58:09.568Z,23.75
2019-02-15T15:00:40.085Z,23.95
2019-02-15T15:03:10.613Z,23.20
2019-02-15T15:05:41.277Z,23.45
2019-02-15T15:08:11.796Z,23.20
2019-02-15T15:10:42.255Z,23.70
2019-02-15T15:13:12.793Z,22.77
2019-02-15T15:15:43.264Z,23.80
2019-02-15T15:18:13.779Z,23.65
2019-02-15T15:20:44.515Z,22.90
2019-02-15T15:23:16.157Z,23.70
2019-02-15T15:25:46.702Z,23.47
2019-02-15T15:28:17.164Z,23.30
2019-02-15T15:30:47.652Z,22.03
2019-02-15T15:33:18.550Z,21.80
2019-02-15T15:35:49.747Z,21.13
2019-02-15T15:38:20.289Z,22.02
2019-02-15T15:40:50.737Z,21.43
2019-02-15T15:43:21.263Z,20.82
2019-02-15T15:45:51.756Z,21.62
2019-02-15T15:48:23.084Z,24.70
2019-02-15T15:50:53.732Z,22.20
2019-02-15T15:53:24.188Z,22.52
2019-02-15T15:55:54.950Z,20.03
2019-02-15T15:58:25.775Z,21.30
2019-02-15T16:00:56.243Z,20.83
2019-02-15T16:03:26.740Z,23.15
2019-02-15T16:05:57.200Z,26.10
2019-02-15T16:08:27.711Z,20.43
2019-02-15T16:10:58.482Z,25.55
2019-02-15T16:13:28.989Z,22.80
2019-02-15T16:15:59.548Z,24.70
2019-02-15T16:18:34.227Z,23.02
2019-02-15T16:21:02.184Z,21.33
2019-02-15T16:23:32.981Z,19.50
2019-02-15T16:26:03.464Z,21.27
2019-02-15T16:28:34.393Z,21.60
2019-02-15T16:31:05.165Z,22.93
2019-02-15T16:33:35.617Z,25.20
2019-02-15T16:36:06.114Z,23.73
2019-02-15T16:38:37.447Z,23.38
2019-02-15T16:41:07.939Z,22.07
2019-02-15T16:43:38.417Z,24.92
2019-02-15T16:46:10.270Z,22.85
2019-02-15T16:48:42.300Z,25.82
2019-02-15T16:51:12.949Z,25.33
2019-02-15T16:53:43.801Z,22.77
2019-02-15T16:56:14.314Z,22.80
2019-02-15T16:58:45.222Z,21.43
2019-02-15T17:01:15.696Z,20.55
2019-02-15T17:03:46.171Z,23.53
2019-02-15T17:06:16.638Z,23.77
2019-02-15T17:08:47.107Z,21.57
2019-02-15T17:11:17.607Z,23.33
2019-02-15T17:13:48.100Z,23.02
2019-02-15T17:16:18.558Z,23.18
2019-02-15T17:18:51.744Z,29.90
2019-02-15T17:21:21.237Z,26.80
2019-02-15T17:23:51.737Z,26.10
2019-02-15T17:26:22.217Z,24.12
2019-02-15T17:28:52.953Z,23.77
2019-02-15T17:31:23.468Z,23.67
2019-02-15T17:33:54.287Z,25.37
2019-02-15T17:36:24.841Z,26.90
2019-02-15T17:38:55.612Z,23.60
2019-02-15T17:41:26.064Z,23.00
2019-02-15T17:43:56.550Z,25.40
2019-02-15T17:46:27.038Z,25.30
2019-02-15T17:49:00.688Z,24.72
2019-02-15T17:51:29.638Z,24.72
2019-02-15T17:54:00.163Z,24.87
2019-02-15T17:56:31.054Z,24.57
2019-02-15T17:59:01.548Z,24.32
2019-02-15T18:01:32.782Z,23.53
2019-02-15T18:04:03.933Z,23.85
2019-02-15T18:06:34.408Z,25.70
2019-02-15T18:09:06.437Z,25.57
2019-02-15T18:11:36.908Z,21.70
2019-02-15T18:14:07.382Z,24.63
2019-02-15T18:16:37.833Z,25.75
2019-02-15T18:19:10.038Z,27.80
2019-02-15T18:21:40.540Z,26.70
2019-02-15T18:24:11.010Z,26.87
2019-02-15T18:26:41.506Z,28.13
2019-02-15T18:29:11.993Z,28.77
2019-02-15T18:31:42.545Z,28.52
2019-02-15T18:34:13.024Z,28.67
2019-02-15T18:36:43.524Z,23.85
2019-02-15T18:39:14.048Z,26.55
2019-02-15T18:41:44.925Z,25.87
2019-02-15T18:44:15.464Z,28.45
2019-02-15T18:46:45.969Z,25.40
2019-02-15T18:49:19.366Z,23.92
2019-02-15T18:51:48.684Z,25.43
2019-02-15T18:54:19.593Z,24.13
2019-02-15T18:56:50.059Z,25.77
2019-02-15T18:59:20.568Z,24.20
2019-02-15T19:01:51.173Z,24.43
2019-02-15T19:04:21.658Z,27.53
2019-02-15T19:06:52.153Z,26.20
2019-02-15T19:09:22.648Z,27.35
2019-02-15T19:11:53.481Z,24.30
2019-02-15T19:14:23.985Z,27.58
2019-02-15T19:16:54.452Z,24.33
2019-02-15T19:19:29.156Z,26.85
2019-02-15T19:21:57.110Z,26.03
2019-02-15T19:24:27.582Z,27.40
2019-02-15T19:26:59.504Z,24.87
2019-02-15T19:29:31.993Z,26.57
2019-02-15T19:32:03.008Z,27.22
2019-02-15T19:34:33.477Z,26.03
2019-02-15T19:37:03.965Z,25.77
2019-02-15T19:39:34.434Z,31.77
2019-02-15T19:42:09.633Z,27.33
2019-02-15T19:44:40.493Z,28.32
2019-02-15T19:47:11.018Z,29.40
2019-02-15T19:49:41.507Z,29.32
2019-02-15T19:52:12.001Z,26.03
2019-02-15T19:54:42.486Z,27.85
2019-02-15T19:57:13.277Z,30.92
2019-02-15T19:59:53.203Z,27.23
2019-02-15T20:02:16.395Z,31.97
2019-02-15T20:04:48.149Z,31.00
2019-02-15T20:07:18.708Z,33.00
2019-02-15T20:09:49.434Z,31.47
2019-02-15T20:12:20.073Z,34.92
2019-02-15T20:14:50.604Z,29.10
2019-02-15T20:17:21.065Z,30.63
2019-02-15T20:19:51.546Z,31.97
2019-02-15T20:22:22.000Z,30.32
2019-02-15T20:24:52.497Z,32.75
2019-02-15T20:27:22.946Z,31.37
2019-02-15T20:29:53.406Z,34.53
2019-02-15T20:32:24.215Z,32.60
2019-02-15T20:34:54.680Z,32.80
2019-02-15T20:37:25.129Z,34.03
2019-02-15T20:39:55.606Z,35.97
2019-02-15T20:42:26.101Z,36.53
2019-02-15T20:44:56.601Z,33.67
2019-02-15T20:47:27.442Z,31.55
2019-02-15T20:49:58.380Z,35.47
2019-02-15T20:52:30.091Z,36.00
2019-02-15T20:55:00.549Z,37.37
2019-02-15T20:57:30.998Z,31.35
2019-02-15T21:00:01.483Z,32.43
2019-02-15T21:02:31.949Z,31.37
2019-02-15T21:05:02.430Z,34.43
2019-02-15T21:07:32.914Z,37.17
2019-02-15T21:10:03.422Z,33.80
2019-02-15T21:12:34.251Z,29.27
2019-02-15T21:15:04.846Z,32.40
2019-02-15T21:17:36.302Z,30.93
2019-02-15T21:20:08.330Z,30.08
2019-02-15T21:22:39.300Z,30.85
2019-02-15T21:25:11.743Z,32.20
2019-02-15T21:27:42.212Z,37.75
2019-02-15T21:30:13.833Z,31.33
2019-02-15T21:32:44.381Z,35.17
2019-02-15T21:35:15.355Z,32.70
2019-02-15T21:37:46.927Z,37.30
2019-02-15T21:40:17.441Z,33.30
2019-02-15T21:42:47.910Z,37.70
2019-02-15T21:45:18.387Z,31.70
2019-02-15T21:47:48.853Z,37.38
2019-02-15T21:50:19.324Z,34.95
2019-02-15T21:52:49.769Z,32.63
2019-02-15T21:55:20.249Z,33.27
2019-02-15T21:57:51.132Z,38.17
2019-02-15T22:00:21.743Z,34.35
2019-02-15T22:02:52.208Z,37.98
2019-02-15T22:05:22.673Z,40.10
2019-02-15T22:07:53.405Z,40.43
2019-02-15T22:10:23.868Z,34.95
2019-02-15T22:12:54.712Z,35.33
2019-02-15T22:15:25.193Z,37.15
2019-02-15T22:17:55.696Z,35.58
2019-02-15T22:20:27.109Z,33.00
2019-02-15T22:22:58.035Z,38.75
2019-02-15T22:25:28.814Z,37.13
2019-02-15T22:27:59.274Z,32.53
2019-02-15T22:30:30.057Z,34.98
2019-02-15T22:33:00.541Z,34.03
2019-02-15T22:35:31.017Z,29.92
2019-02-15T22:38:01.844Z,36.28
2019-02-15T22:40:43.330Z,38.47
2019-02-15T22:43:22.001Z,37.38
2019-02-15T22:45:52.472Z,36.17
2019-02-15T22:48:22.992Z,34.90
2019-02-15T22:50:53.460Z,36.40
2019-02-15T22:53:24.297Z,36.28
2019-02-15T22:55:54.761Z,32.53
2019-02-15T22:58:25.267Z,32.73
2019-02-15T23:01:08.553Z,32.53
2019-02-15T23:03:39.126Z,39.20
2019-02-15T23:06:09.624Z,35.40
2019-02-15T23:08:40.107Z,30.92
2019-02-15T23:11:10.972Z,34.60
2019-02-15T23:13:41.453Z,32.50
2019-02-15T23:16:11.976Z,29.57
2019-02-15T23:18:42.732Z,28.95
2019-02-15T23:21:13.196Z,34.87
2019-02-15T23:23:44.026Z,34.30
2019-02-15T23:26:14.510Z,35.77
2019-02-15T23:28:45.024Z,30.07
2019-02-15T23:31:15.493Z,33.10
2019-02-15T23:33:46.336Z,32.90
2019-02-15T23:36:16.816Z,39.42
2019-02-15T23:38:47.658Z,32.73
2019-02-15T23:41:18.129Z,32.80
2019-02-15T23:43:48.628Z,33.05
2019-02-15T23:46:19.159Z,35.50
2019-02-15T23:48:49.688Z,35.43
2019-02-15T23:51:20.154Z,40.38
2019-02-15T23:53:50.674Z,29.98
2019-02-15T23:56:21.569Z,29.87
2019-02-15T23:58:52.423Z,28.95
